sensor_id;sensor_type;location;lat;lon;timestamp;P1;durP1;ratioP1;P2;durP2;ratioP2
51558;SDS011;61650;48.882;2.092;2022-12-01T00:00:40;43.63;;;22.20;;
51558;SDS011;61650;48.882;2.092;2022-12-01T00:03:05;40.33;;;20.23;;
51558;SDS011;61650;48.882;2.092;2022-12-01T00:05:31;38.50;;;21.60;;
51558;SDS011;61650;48.882;2.092;2022-12-01T00:07:57;39.13;;;22.03;;
51558;SDS011;61650;48.882;2.092;2022-12-01T00:10:23;37.75;;;20.35;;
51558;SDS011;61650;48.882;2.092;2022-12-01T00:12:50;36.95;;;20.50;;
51558;SDS011;61650;48.882;2.092;2022-12-01T00:15:20;38.92;;;21.88;;
51558;SDS011;61650;48.882;2.092;2022-12-01T00:17:46;34.70;;;19.20;;
51558;SDS011;61650;48.882;2.092;2022-12-01T00:20:14;39.97;;;20.95;;
51558;SDS011;61650;48.882;2.092;2022-12-01T00:22:41;41.55;;;21.67;;
51558;SDS011;61650;48.882;2.092;2022-12-01T00:25:07;43.53;;;21.80;;
51558;SDS011;61650;48.882;2.092;2022-12-01T00:27:33;37.53;;;21.03;;
51558;SDS011;61650;48.882;2.092;2022-12-01T00:29:59;37.23;;;21.00;;
51558;SDS011;61650;48.882;2.092;2022-12-01T00:32:24;38.93;;;20.70;;
51558;SDS011;61650;48.882;2.092;2022-12-01T00:34:50;41.73;;;21.30;;
51558;SDS011;61650;48.882;2.092;2022-12-01T00:37:15;40.47;;;22.23;;
51558;SDS011;61650;48.882;2.092;2022-12-01T00:39:41;45.00;;;22.07;;
51558;SDS011;61650;48.882;2.092;2022-12-01T00:42:06;39.90;;;21.33;;
51558;SDS011;61650;48.882;2.092;2022-12-01T00:44:32;37.63;;;21.37;;
51558;SDS011;61650;48.882;2.092;2022-12-01T00:46:58;39.30;;;21.20;;
51558;SDS011;61650;48.882;2.092;2022-12-01T00:49:23;40.03;;;20.77;;
51558;SDS011;61650;48.882;2.092;2022-12-01T00:51:49;39.83;;;20.77;;
51558;SDS011;61650;48.882;2.092;2022-12-01T00:54:14;42.93;;;21.43;;
51558;SDS011;61650;48.882;2.092;2022-12-01T00:56:40;41.77;;;22.50;;
51558;SDS011;61650;48.882;2.092;2022-12-01T00:59:05;38.60;;;21.30;;
51558;SDS011;61650;48.882;2.092;2022-12-01T01:01:31;43.10;;;21.67;;
51558;SDS011;61650;48.882;2.092;2022-12-01T01:03:57;40.53;;;22.70;;
51558;SDS011;61650;48.882;2.092;2022-12-01T01:06:22;39.73;;;22.20;;
51558;SDS011;61650;48.882;2.092;2022-12-01T01:08:48;41.43;;;22.00;;
51558;SDS011;61650;48.882;2.092;2022-12-01T01:11:14;40.03;;;21.20;;
51558;SDS011;61650;48.882;2.092;2022-12-01T01:13:39;40.23;;;21.70;;
51558;SDS011;61650;48.882;2.092;2022-12-01T01:16:06;41.13;;;21.47;;
51558;SDS011;61650;48.882;2.092;2022-12-01T01:18:35;42.28;;;22.23;;
51558;SDS011;61650;48.882;2.092;2022-12-01T01:21:05;39.10;;;21.17;;
51558;SDS011;61650;48.882;2.092;2022-12-01T01:23:32;41.67;;;21.02;;
51558;SDS011;61650;48.882;2.092;2022-12-01T01:26:03;40.53;;;19.55;;
51558;SDS011;61650;48.882;2.092;2022-12-01T01:28:30;42.53;;;21.80;;
51558;SDS011;61650;48.882;2.092;2022-12-01T01:30:56;44.65;;;23.30;;
51558;SDS011;61650;48.882;2.092;2022-12-01T01:33:22;39.70;;;22.50;;
51558;SDS011;61650;48.882;2.092;2022-12-01T01:35:48;41.17;;;20.27;;
51558;SDS011;61650;48.882;2.092;2022-12-01T01:38:13;44.57;;;21.67;;
51558;SDS011;61650;48.882;2.092;2022-12-01T01:40:43;36.43;;;21.23;;
51558;SDS011;61650;48.882;2.092;2022-12-01T01:43:11;41.55;;;22.55;;
51558;SDS011;61650;48.882;2.092;2022-12-01T01:46:01;39.67;;;21.02;;
51558;SDS011;61650;48.882;2.092;2022-12-01T01:48:27;35.83;;;21.40;;
51558;SDS011;61650;48.882;2.092;2022-12-01T01:50:52;43.47;;;22.80;;
51558;SDS011;61650;48.882;2.092;2022-12-01T01:53:19;40.10;;;21.75;;
51558;SDS011;61650;48.882;2.092;2022-12-01T01:55:45;37.47;;;21.73;;
51558;SDS011;61650;48.882;2.092;2022-12-01T01:58:11;40.97;;;22.63;;
51558;SDS011;61650;48.882;2.092;2022-12-01T02:00:37;43.80;;;23.40;;
51558;SDS011;61650;48.882;2.092;2022-12-01T02:03:04;42.17;;;22.65;;
51558;SDS011;61650;48.882;2.092;2022-12-01T02:05:32;43.75;;;22.33;;
51558;SDS011;61650;48.882;2.092;2022-12-01T02:08:00;41.70;;;20.95;;
51558;SDS011;61650;48.882;2.092;2022-12-01T02:16:13;41.72;;;21.88;;
51558;SDS011;61650;48.882;2.092;2022-12-01T02:21:33;42.25;;;21.88;;
51558;SDS011;61650;48.882;2.092;2022-12-01T02:27:19;38.67;;;19.52;;
51558;SDS011;61650;48.882;2.092;2022-12-01T02:30:00;39.90;;;21.67;;
51558;SDS011;61650;48.882;2.092;2022-12-01T02:33:03;36.55;;;20.92;;
51558;SDS011;61650;48.882;2.092;2022-12-01T02:38:38;41.88;;;21.08;;
51558;SDS011;61650;48.882;2.092;2022-12-01T02:41:13;39.25;;;21.65;;
51558;SDS011;61650;48.882;2.092;2022-12-01T02:46:21;39.97;;;21.98;;
51558;SDS011;61650;48.882;2.092;2022-12-01T02:48:57;42.90;;;22.25;;
51558;SDS011;61650;48.882;2.092;2022-12-01T02:51:27;41.22;;;21.27;;
51558;SDS011;61650;48.882;2.092;2022-12-01T02:53:55;47.60;;;22.13;;
51558;SDS011;61650;48.882;2.092;2022-12-01T02:56:23;43.47;;;21.58;;
51558;SDS011;61650;48.882;2.092;2022-12-01T02:58:49;45.08;;;22.45;;
51558;SDS011;61650;48.882;2.092;2022-12-01T03:03:57;38.38;;;20.30;;
51558;SDS011;61650;48.882;2.092;2022-12-01T03:09:38;39.13;;;21.50;;
51558;SDS011;61650;48.882;2.092;2022-12-01T03:17:39;40.42;;;20.10;;
51558;SDS011;61650;48.882;2.092;2022-12-01T03:20:22;42.58;;;21.85;;
51558;SDS011;61650;48.882;2.092;2022-12-01T03:23:14;39.65;;;20.88;;
51558;SDS011;61650;48.882;2.092;2022-12-01T03:25:44;35.97;;;20.15;;
51558;SDS011;61650;48.882;2.092;2022-12-01T03:28:12;38.60;;;21.48;;
51558;SDS011;61650;48.882;2.092;2022-12-01T03:30:39;39.40;;;19.85;;
51558;SDS011;61650;48.882;2.092;2022-12-01T03:33:12;43.47;;;21.23;;
51558;SDS011;61650;48.882;2.092;2022-12-01T03:38:39;36.67;;;20.25;;
51558;SDS011;61650;48.882;2.092;2022-12-01T03:41:09;36.63;;;21.08;;
51558;SDS011;61650;48.882;2.092;2022-12-01T03:43:40;35.88;;;20.23;;
51558;SDS011;61650;48.882;2.092;2022-12-01T03:46:17;39.03;;;20.45;;
51558;SDS011;61650;48.882;2.092;2022-12-01T03:49:10;34.22;;;19.77;;
51558;SDS011;61650;48.882;2.092;2022-12-01T03:54:51;39.17;;;21.08;;
51558;SDS011;61650;48.882;2.092;2022-12-01T03:57:03;37.60;;;20.08;;
51558;SDS011;61650;48.882;2.092;2022-12-01T03:59:32;41.70;;;20.33;;
51558;SDS011;61650;48.882;2.092;2022-12-01T04:02:01;36.47;;;18.85;;
51558;SDS011;61650;48.882;2.092;2022-12-01T04:04:27;40.90;;;19.37;;
51558;SDS011;61650;48.882;2.092;2022-12-01T04:06:52;38.20;;;19.90;;
51558;SDS011;61650;48.882;2.092;2022-12-01T04:09:18;35.70;;;20.10;;
51558;SDS011;61650;48.882;2.092;2022-12-01T04:11:44;38.43;;;19.97;;
51558;SDS011;61650;48.882;2.092;2022-12-01T04:14:28;39.78;;;19.88;;
51558;SDS011;61650;48.882;2.092;2022-12-01T04:16:54;35.13;;;16.90;;
51558;SDS011;61650;48.882;2.092;2022-12-01T04:19:20;38.10;;;19.10;;
51558;SDS011;61650;48.882;2.092;2022-12-01T04:21:45;35.00;;;19.43;;
51558;SDS011;61650;48.882;2.092;2022-12-01T04:24:11;32.60;;;18.77;;
51558;SDS011;61650;48.882;2.092;2022-12-01T04:26:37;36.15;;;15.60;;
51558;SDS011;61650;48.882;2.092;2022-12-01T04:29:07;41.27;;;19.40;;
51558;SDS011;61650;48.882;2.092;2022-12-01T04:31:34;34.03;;;17.05;;
51558;SDS011;61650;48.882;2.092;2022-12-01T04:33:59;35.80;;;16.27;;
51558;SDS011;61650;48.882;2.092;2022-12-01T04:36:26;33.47;;;17.50;;
51558;SDS011;61650;48.882;2.092;2022-12-01T04:38:54;40.25;;;19.65;;
51558;SDS011;61650;48.882;2.092;2022-12-01T04:41:20;32.13;;;17.77;;
51558;SDS011;61650;48.882;2.092;2022-12-01T04:43:45;36.67;;;18.63;;
51558;SDS011;61650;48.882;2.092;2022-12-01T04:46:11;33.83;;;18.43;;
51558;SDS011;61650;48.882;2.092;2022-12-01T04:48:38;38.05;;;18.67;;
51558;SDS011;61650;48.882;2.092;2022-12-01T04:51:04;35.80;;;19.33;;
51558;SDS011;61650;48.882;2.092;2022-12-01T04:53:31;31.77;;;18.38;;
51558;SDS011;61650;48.882;2.092;2022-12-01T04:56:00;33.73;;;17.90;;
51558;SDS011;61650;48.882;2.092;2022-12-01T04:58:27;39.15;;;19.48;;
51558;SDS011;61650;48.882;2.092;2022-12-01T05:00:54;36.92;;;18.90;;
51558;SDS011;61650;48.882;2.092;2022-12-01T05:03:25;33.70;;;17.63;;
51558;SDS011;61650;48.882;2.092;2022-12-01T05:05:59;33.73;;;16.80;;
51558;SDS011;61650;48.882;2.092;2022-12-01T05:08:29;33.17;;;18.98;;
51558;SDS011;61650;48.882;2.092;2022-12-01T05:10:54;35.30;;;17.73;;
51558;SDS011;61650;48.882;2.092;2022-12-01T05:13:20;36.00;;;17.25;;
51558;SDS011;61650;48.882;2.092;2022-12-01T05:15:46;30.43;;;17.43;;
51558;SDS011;61650;48.882;2.092;2022-12-01T05:18:12;32.80;;;17.13;;
51558;SDS011;61650;48.882;2.092;2022-12-01T05:20:37;32.90;;;17.57;;
51558;SDS011;61650;48.882;2.092;2022-12-01T05:23:21;40.60;;;18.52;;
51558;SDS011;61650;48.882;2.092;2022-12-01T05:25:51;32.72;;;17.80;;
51558;SDS011;61650;48.882;2.092;2022-12-01T05:28:18;32.10;;;17.75;;
51558;SDS011;61650;48.882;2.092;2022-12-01T05:30:44;33.95;;;15.90;;
51558;SDS011;61650;48.882;2.092;2022-12-01T05:33:09;35.50;;;16.77;;
51558;SDS011;61650;48.882;2.092;2022-12-01T05:35:35;33.80;;;17.20;;
51558;SDS011;61650;48.882;2.092;2022-12-01T05:38:01;34.90;;;18.43;;
51558;SDS011;61650;48.882;2.092;2022-12-01T05:40:26;35.70;;;16.63;;
51558;SDS011;61650;48.882;2.092;2022-12-01T05:42:52;37.00;;;18.80;;
51558;SDS011;61650;48.882;2.092;2022-12-01T05:45:17;35.30;;;17.27;;
51558;SDS011;61650;48.882;2.092;2022-12-01T05:47:43;39.00;;;18.17;;
51558;SDS011;61650;48.882;2.092;2022-12-01T05:50:09;42.23;;;19.93;;
51558;SDS011;61650;48.882;2.092;2022-12-01T05:52:35;30.20;;;16.70;;
51558;SDS011;61650;48.882;2.092;2022-12-01T05:55:04;41.10;;;19.55;;
51558;SDS011;61650;48.882;2.092;2022-12-01T05:57:31;38.70;;;18.40;;
51558;SDS011;61650;48.882;2.092;2022-12-01T05:59:57;35.30;;;20.15;;
51558;SDS011;61650;48.882;2.092;2022-12-01T06:02:23;40.73;;;20.37;;
51558;SDS011;61650;48.882;2.092;2022-12-01T06:04:50;37.05;;;20.80;;
51558;SDS011;61650;48.882;2.092;2022-12-01T06:07:17;38.85;;;19.17;;
51558;SDS011;61650;48.882;2.092;2022-12-01T06:09:43;41.85;;;20.33;;
51558;SDS011;61650;48.882;2.092;2022-12-01T06:12:10;40.67;;;20.00;;
51558;SDS011;61650;48.882;2.092;2022-12-01T06:14:36;36.83;;;17.77;;
51558;SDS011;61650;48.882;2.092;2022-12-01T06:17:02;38.70;;;20.23;;
51558;SDS011;61650;48.882;2.092;2022-12-01T06:19:28;36.28;;;18.70;;
51558;SDS011;61650;48.882;2.092;2022-12-01T06:21:55;37.53;;;20.52;;
51558;SDS011;61650;48.882;2.092;2022-12-01T06:24:21;37.30;;;18.90;;
51558;SDS011;61650;48.882;2.092;2022-12-01T06:26:46;41.27;;;18.80;;
51558;SDS011;61650;48.882;2.092;2022-12-01T06:29:12;35.53;;;20.60;;
51558;SDS011;61650;48.882;2.092;2022-12-01T06:31:37;38.57;;;18.90;;
51558;SDS011;61650;48.882;2.092;2022-12-01T06:34:03;35.00;;;18.70;;
51558;SDS011;61650;48.882;2.092;2022-12-01T06:36:29;36.90;;;19.87;;
51558;SDS011;61650;48.882;2.092;2022-12-01T06:38:54;38.33;;;18.37;;
51558;SDS011;61650;48.882;2.092;2022-12-01T06:41:20;33.17;;;19.17;;
51558;SDS011;61650;48.882;2.092;2022-12-01T06:43:45;35.47;;;19.07;;
51558;SDS011;61650;48.882;2.092;2022-12-01T06:46:11;34.03;;;18.40;;
51558;SDS011;61650;48.882;2.092;2022-12-01T06:48:36;32.60;;;17.80;;
51558;SDS011;61650;48.882;2.092;2022-12-01T06:51:02;35.03;;;17.93;;
51558;SDS011;61650;48.882;2.092;2022-12-01T06:53:28;36.53;;;19.30;;
51558;SDS011;61650;48.882;2.092;2022-12-01T06:55:57;33.90;;;17.77;;
51558;SDS011;61650;48.882;2.092;2022-12-01T06:58:27;38.03;;;19.80;;
51558;SDS011;61650;48.882;2.092;2022-12-01T07:00:53;40.77;;;19.37;;
51558;SDS011;61650;48.882;2.092;2022-12-01T07:03:18;37.47;;;18.10;;
51558;SDS011;61650;48.882;2.092;2022-12-01T07:05:44;35.50;;;18.10;;
51558;SDS011;61650;48.882;2.092;2022-12-01T07:08:18;45.15;;;20.45;;
51558;SDS011;61650;48.882;2.092;2022-12-01T07:10:43;34.30;;;18.80;;
51558;SDS011;61650;48.882;2.092;2022-12-01T07:13:09;34.67;;;18.13;;
51558;SDS011;61650;48.882;2.092;2022-12-01T07:15:34;33.97;;;19.00;;
51558;SDS011;61650;48.882;2.092;2022-12-01T07:18:02;35.45;;;18.67;;
51558;SDS011;61650;48.882;2.092;2022-12-01T07:20:28;34.00;;;19.27;;
51558;SDS011;61650;48.882;2.092;2022-12-01T07:22:53;33.37;;;17.87;;
51558;SDS011;61650;48.882;2.092;2022-12-01T07:25:19;35.07;;;20.07;;
51558;SDS011;61650;48.882;2.092;2022-12-01T07:27:44;32.33;;;18.63;;
51558;SDS011;61650;48.882;2.092;2022-12-01T07:30:10;35.93;;;18.57;;
51558;SDS011;61650;48.882;2.092;2022-12-01T07:32:36;33.67;;;19.73;;
51558;SDS011;61650;48.882;2.092;2022-12-01T07:35:01;32.83;;;18.37;;
51558;SDS011;61650;48.882;2.092;2022-12-01T07:37:27;34.80;;;19.03;;
51558;SDS011;61650;48.882;2.092;2022-12-01T07:39:52;33.97;;;19.47;;
51558;SDS011;61650;48.882;2.092;2022-12-01T07:42:18;31.53;;;19.03;;
51558;SDS011;61650;48.882;2.092;2022-12-01T07:44:43;35.40;;;20.20;;
51558;SDS011;61650;48.882;2.092;2022-12-01T07:47:09;32.20;;;19.10;;
51558;SDS011;61650;48.882;2.092;2022-12-01T07:49:34;33.67;;;19.10;;
51558;SDS011;61650;48.882;2.092;2022-12-01T07:52:00;34.33;;;20.60;;
51558;SDS011;61650;48.882;2.092;2022-12-01T07:54:26;32.03;;;17.87;;
51558;SDS011;61650;48.882;2.092;2022-12-01T07:56:51;30.83;;;18.90;;
51558;SDS011;61650;48.882;2.092;2022-12-01T07:59:18;30.30;;;17.73;;
51558;SDS011;61650;48.882;2.092;2022-12-01T08:01:44;32.25;;;17.13;;
51558;SDS011;61650;48.882;2.092;2022-12-01T08:04:10;31.30;;;17.47;;
51558;SDS011;61650;48.882;2.092;2022-12-01T08:06:36;30.83;;;16.70;;
51558;SDS011;61650;48.882;2.092;2022-12-01T08:09:01;30.40;;;17.17;;
51558;SDS011;61650;48.882;2.092;2022-12-01T08:11:27;30.20;;;18.70;;
51558;SDS011;61650;48.882;2.092;2022-12-01T08:13:54;30.15;;;18.40;;
51558;SDS011;61650;48.882;2.092;2022-12-01T08:16:20;34.05;;;18.95;;
51558;SDS011;61650;48.882;2.092;2022-12-01T08:18:47;34.17;;;18.52;;
51558;SDS011;61650;48.882;2.092;2022-12-01T08:21:14;30.57;;;17.70;;
51558;SDS011;61650;48.882;2.092;2022-12-01T08:23:41;35.88;;;19.67;;
51558;SDS011;61650;48.882;2.092;2022-12-01T08:26:10;32.70;;;17.02;;
51558;SDS011;61650;48.882;2.092;2022-12-01T08:28:37;32.85;;;18.52;;
51558;SDS011;61650;48.882;2.092;2022-12-01T08:33:48;27.70;;;16.95;;
51558;SDS011;61650;48.882;2.092;2022-12-01T08:36:14;31.60;;;18.02;;
51558;SDS011;61650;48.882;2.092;2022-12-01T08:38:42;29.85;;;17.50;;
51558;SDS011;61650;48.882;2.092;2022-12-01T08:41:08;32.38;;;17.90;;
51558;SDS011;61650;48.882;2.092;2022-12-01T08:43:34;26.97;;;16.37;;
51558;SDS011;61650;48.882;2.092;2022-12-01T08:46:05;27.83;;;16.95;;
51558;SDS011;61650;48.882;2.092;2022-12-01T08:48:31;30.50;;;17.38;;
51558;SDS011;61650;48.882;2.092;2022-12-01T08:51:04;28.20;;;18.25;;
51558;SDS011;61650;48.882;2.092;2022-12-01T08:53:32;30.35;;;17.23;;
51558;SDS011;61650;48.882;2.092;2022-12-01T08:56:04;31.88;;;15.63;;
51558;SDS011;61650;48.882;2.092;2022-12-01T08:58:32;29.70;;;16.65;;
51558;SDS011;61650;48.882;2.092;2022-12-01T09:01:05;30.10;;;16.20;;
51558;SDS011;61650;48.882;2.092;2022-12-01T09:03:32;28.80;;;15.38;;
51558;SDS011;61650;48.882;2.092;2022-12-01T09:06:03;29.20;;;15.57;;
51558;SDS011;61650;48.882;2.092;2022-12-01T09:08:30;30.13;;;16.05;;
51558;SDS011;61650;48.882;2.092;2022-12-01T09:10:56;27.67;;;15.13;;
51558;SDS011;61650;48.882;2.092;2022-12-01T09:13:23;29.80;;;16.90;;
51558;SDS011;61650;48.882;2.092;2022-12-01T09:18:27;28.08;;;16.15;;
51558;SDS011;61650;48.882;2.092;2022-12-01T09:20:53;27.50;;;15.83;;
51558;SDS011;61650;48.882;2.092;2022-12-01T09:23:19;31.48;;;16.30;;
51558;SDS011;61650;48.882;2.092;2022-12-01T09:25:45;24.45;;;14.60;;
51558;SDS011;61650;48.882;2.092;2022-12-01T09:28:11;26.17;;;14.48;;
51558;SDS011;61650;48.882;2.092;2022-12-01T09:30:37;25.20;;;15.00;;
51558;SDS011;61650;48.882;2.092;2022-12-01T09:33:03;26.73;;;16.07;;
51558;SDS011;61650;48.882;2.092;2022-12-01T09:35:29;22.60;;;14.30;;
51558;SDS011;61650;48.882;2.092;2022-12-01T09:37:55;25.30;;;14.00;;
51558;SDS011;61650;48.882;2.092;2022-12-01T09:40:22;26.80;;;14.50;;
51558;SDS011;61650;48.882;2.092;2022-12-01T09:42:52;23.00;;;13.90;;
51558;SDS011;61650;48.882;2.092;2022-12-01T09:45:24;23.70;;;14.23;;
51558;SDS011;61650;48.882;2.092;2022-12-01T09:47:54;25.38;;;13.48;;
51558;SDS011;61650;48.882;2.092;2022-12-01T09:50:23;24.73;;;13.93;;
51558;SDS011;61650;48.882;2.092;2022-12-01T09:52:56;22.55;;;13.93;;
51558;SDS011;61650;48.882;2.092;2022-12-01T09:55:30;24.10;;;14.10;;
51558;SDS011;61650;48.882;2.092;2022-12-01T09:57:58;21.50;;;13.13;;
51558;SDS011;61650;48.882;2.092;2022-12-01T10:00:28;24.48;;;14.43;;
51558;SDS011;61650;48.882;2.092;2022-12-01T10:05:47;27.98;;;15.07;;
51558;SDS011;61650;48.882;2.092;2022-12-01T10:08:14;20.38;;;13.57;;
51558;SDS011;61650;48.882;2.092;2022-12-01T10:10:44;23.27;;;13.38;;
51558;SDS011;61650;48.882;2.092;2022-12-01T10:13:18;20.83;;;13.75;;
51558;SDS011;61650;48.882;2.092;2022-12-01T10:16:08;24.00;;;13.32;;
51558;SDS011;61650;48.882;2.092;2022-12-01T10:26:57;25.13;;;14.05;;
51558;SDS011;61650;48.882;2.092;2022-12-01T10:29:26;23.83;;;13.73;;
51558;SDS011;61650;48.882;2.092;2022-12-01T10:31:56;20.88;;;12.20;;
51558;SDS011;61650;48.882;2.092;2022-12-01T10:34:34;22.30;;;14.05;;
51558;SDS011;61650;48.882;2.092;2022-12-01T10:37:02;20.55;;;13.10;;
51558;SDS011;61650;48.882;2.092;2022-12-01T10:39:29;20.43;;;13.10;;
51558;SDS011;61650;48.882;2.092;2022-12-01T10:42:42;24.48;;;14.25;;
51558;SDS011;61650;48.882;2.092;2022-12-01T10:44:50;25.63;;;13.45;;
51558;SDS011;61650;48.882;2.092;2022-12-01T10:47:19;23.10;;;14.02;;
51558;SDS011;61650;48.882;2.092;2022-12-01T10:49:46;22.92;;;14.23;;
51558;SDS011;61650;48.882;2.092;2022-12-01T10:55:01;22.55;;;13.13;;
51558;SDS011;61650;48.882;2.092;2022-12-01T10:57:30;24.55;;;14.10;;
51558;SDS011;61650;48.882;2.092;2022-12-01T10:59:57;24.63;;;14.38;;
51558;SDS011;61650;48.882;2.092;2022-12-01T11:02:44;23.70;;;13.82;;
51558;SDS011;61650;48.882;2.092;2022-12-01T11:05:21;20.40;;;12.00;;
51558;SDS011;61650;48.882;2.092;2022-12-01T11:08:35;20.77;;;12.90;;
51558;SDS011;61650;48.882;2.092;2022-12-01T11:13:55;17.83;;;11.80;;
51558;SDS011;61650;48.882;2.092;2022-12-01T11:16:37;19.25;;;11.43;;
51558;SDS011;61650;48.882;2.092;2022-12-01T11:19:08;21.27;;;12.85;;
51558;SDS011;61650;48.882;2.092;2022-12-01T11:21:51;19.83;;;12.00;;
51558;SDS011;61650;48.882;2.092;2022-12-01T11:24:28;18.90;;;11.48;;
51558;SDS011;61650;48.882;2.092;2022-12-01T11:26:58;17.92;;;11.32;;
51558;SDS011;61650;48.882;2.092;2022-12-01T11:29:27;17.77;;;11.25;;
51558;SDS011;61650;48.882;2.092;2022-12-01T11:32:00;17.70;;;11.45;;
51558;SDS011;61650;48.882;2.092;2022-12-01T11:34:34;21.75;;;11.70;;
51558;SDS011;61650;48.882;2.092;2022-12-01T11:37:03;19.17;;;11.80;;
51558;SDS011;61650;48.882;2.092;2022-12-01T11:39:38;20.63;;;10.82;;
51558;SDS011;61650;48.882;2.092;2022-12-01T11:44:38;21.90;;;12.05;;
51558;SDS011;61650;48.882;2.092;2022-12-01T11:47:21;19.27;;;12.30;;
51558;SDS011;61650;48.882;2.092;2022-12-01T11:49:53;20.08;;;12.45;;
51558;SDS011;61650;48.882;2.092;2022-12-01T11:54:59;23.30;;;13.52;;
51558;SDS011;61650;48.882;2.092;2022-12-01T11:57:34;20.40;;;12.85;;
51558;SDS011;61650;48.882;2.092;2022-12-01T12:00:00;19.93;;;12.20;;
51558;SDS011;61650;48.882;2.092;2022-12-01T12:02:29;24.13;;;13.85;;
51558;SDS011;61650;48.882;2.092;2022-12-01T12:05:28;22.05;;;13.68;;
51558;SDS011;61650;48.882;2.092;2022-12-01T12:08:33;20.60;;;13.35;;
51558;SDS011;61650;48.882;2.092;2022-12-01T12:11:20;22.98;;;13.35;;
51558;SDS011;61650;48.882;2.092;2022-12-01T12:16:42;22.45;;;13.10;;
51558;SDS011;61650;48.882;2.092;2022-12-01T12:24:43;26.33;;;13.90;;
51558;SDS011;61650;48.882;2.092;2022-12-01T12:27:38;23.35;;;13.05;;
51558;SDS011;61650;48.882;2.092;2022-12-01T12:44:16;24.60;;;13.75;;
51558;SDS011;61650;48.882;2.092;2022-12-01T12:47:30;23.50;;;13.15;;
51558;SDS011;61650;48.882;2.092;2022-12-01T12:52:50;24.00;;;13.50;;
51558;SDS011;61650;48.882;2.092;2022-12-01T12:58:24;22.75;;;13.90;;
51558;SDS011;61650;48.882;2.092;2022-12-01T13:00:54;21.08;;;14.15;;
51558;SDS011;61650;48.882;2.092;2022-12-01T13:03:25;23.10;;;14.05;;
51558;SDS011;61650;48.882;2.092;2022-12-01T13:06:07;25.27;;;13.85;;
51558;SDS011;61650;48.882;2.092;2022-12-01T13:08:39;23.75;;;14.27;;
51558;SDS011;61650;48.882;2.092;2022-12-01T13:11:17;23.95;;;15.13;;
51558;SDS011;61650;48.882;2.092;2022-12-01T13:16:41;26.75;;;15.52;;
51558;SDS011;61650;48.882;2.092;2022-12-01T13:19:17;24.63;;;15.07;;
51558;SDS011;61650;48.882;2.092;2022-12-01T13:21:51;23.13;;;13.70;;
51558;SDS011;61650;48.882;2.092;2022-12-01T13:24:18;24.55;;;14.18;;
51558;SDS011;61650;48.882;2.092;2022-12-01T13:26:47;25.45;;;14.50;;
51558;SDS011;61650;48.882;2.092;2022-12-01T13:29:17;25.25;;;15.35;;
51558;SDS011;61650;48.882;2.092;2022-12-01T13:31:47;25.40;;;14.93;;
51558;SDS011;61650;48.882;2.092;2022-12-01T13:34:21;26.85;;;14.90;;
51558;SDS011;61650;48.882;2.092;2022-12-01T13:36:56;22.88;;;13.65;;
51558;SDS011;61650;48.882;2.092;2022-12-01T13:39:23;22.53;;;14.33;;
51558;SDS011;61650;48.882;2.092;2022-12-01T13:41:55;23.42;;;12.73;;
51558;SDS011;61650;48.882;2.092;2022-12-01T13:44:38;20.92;;;12.38;;
51558;SDS011;61650;48.882;2.092;2022-12-01T13:49:36;21.45;;;12.77;;
51558;SDS011;61650;48.882;2.092;2022-12-01T13:57:34;20.15;;;11.45;;
51558;SDS011;61650;48.882;2.092;2022-12-01T14:05:42;20.83;;;11.85;;
51558;SDS011;61650;48.882;2.092;2022-12-01T14:08:27;17.15;;;10.65;;
51558;SDS011;61650;48.882;2.092;2022-12-01T14:13:25;17.88;;;11.15;;
51558;SDS011;61650;48.882;2.092;2022-12-01T14:15:54;16.48;;;10.10;;
51558;SDS011;61650;48.882;2.092;2022-12-01T14:18:38;17.48;;;10.60;;
51558;SDS011;61650;48.882;2.092;2022-12-01T14:21:08;19.27;;;10.90;;
51558;SDS011;61650;48.882;2.092;2022-12-01T14:23:36;19.58;;;12.23;;
51558;SDS011;61650;48.882;2.092;2022-12-01T14:29:21;19.65;;;11.73;;
51558;SDS011;61650;48.882;2.092;2022-12-01T14:34:16;19.92;;;11.57;;
51558;SDS011;61650;48.882;2.092;2022-12-01T14:36:48;20.75;;;12.68;;
51558;SDS011;61650;48.882;2.092;2022-12-01T14:39:35;19.65;;;12.23;;
51558;SDS011;61650;48.882;2.092;2022-12-01T14:44:41;25.63;;;14.20;;
51558;SDS011;61650;48.882;2.092;2022-12-01T14:47:28;24.15;;;13.48;;
51558;SDS011;61650;48.882;2.092;2022-12-01T14:50:15;22.80;;;14.13;;
51558;SDS011;61650;48.882;2.092;2022-12-01T14:52:48;23.48;;;13.40;;
51558;SDS011;61650;48.882;2.092;2022-12-01T14:58:15;20.38;;;12.90;;
51558;SDS011;61650;48.882;2.092;2022-12-01T15:03:31;18.92;;;12.63;;
51558;SDS011;61650;48.882;2.092;2022-12-01T15:06:19;21.38;;;12.82;;
51558;SDS011;61650;48.882;2.092;2022-12-01T15:08:46;20.58;;;12.80;;
51558;SDS011;61650;48.882;2.092;2022-12-01T15:11:34;24.40;;;13.90;;
51558;SDS011;61650;48.882;2.092;2022-12-01T15:14:00;18.25;;;11.40;;
51558;SDS011;61650;48.882;2.092;2022-12-01T15:16:30;21.90;;;12.10;;
51558;SDS011;61650;48.882;2.092;2022-12-01T15:18:56;23.13;;;13.40;;
51558;SDS011;61650;48.882;2.092;2022-12-01T15:21:25;20.83;;;13.60;;
51558;SDS011;61650;48.882;2.092;2022-12-01T15:24:02;23.40;;;14.07;;
51558;SDS011;61650;48.882;2.092;2022-12-01T15:26:30;22.45;;;13.57;;
51558;SDS011;61650;48.882;2.092;2022-12-01T15:31:47;21.42;;;13.00;;
51558;SDS011;61650;48.882;2.092;2022-12-01T15:34:15;22.45;;;13.30;;
51558;SDS011;61650;48.882;2.092;2022-12-01T15:36:44;24.55;;;14.25;;
51558;SDS011;61650;48.882;2.092;2022-12-01T15:39:14;22.80;;;14.25;;
51558;SDS011;61650;48.882;2.092;2022-12-01T15:41:43;22.25;;;13.30;;
51558;SDS011;61650;48.882;2.092;2022-12-01T15:44:18;22.30;;;13.27;;
51558;SDS011;61650;48.882;2.092;2022-12-01T15:46:45;20.52;;;13.30;;
51558;SDS011;61650;48.882;2.092;2022-12-01T15:49:18;25.17;;;14.20;;
51558;SDS011;61650;48.882;2.092;2022-12-01T15:51:51;27.00;;;17.70;;
51558;SDS011;61650;48.882;2.092;2022-12-01T15:54:18;27.70;;;16.02;;
51558;SDS011;61650;48.882;2.092;2022-12-01T15:56:49;28.23;;;17.00;;
51558;SDS011;61650;48.882;2.092;2022-12-01T15:59:24;23.73;;;14.00;;
51558;SDS011;61650;48.882;2.092;2022-12-01T16:01:50;27.95;;;16.92;;
51558;SDS011;61650;48.882;2.092;2022-12-01T16:04:17;27.00;;;15.43;;
51558;SDS011;61650;48.882;2.092;2022-12-01T16:07:18;23.13;;;13.90;;
51558;SDS011;61650;48.882;2.092;2022-12-01T16:09:38;22.80;;;14.60;;
51558;SDS011;61650;48.882;2.092;2022-12-01T16:17:25;23.42;;;13.85;;
51558;SDS011;61650;48.882;2.092;2022-12-01T16:22:57;21.00;;;12.77;;
51558;SDS011;61650;48.882;2.092;2022-12-01T16:25:32;21.48;;;14.32;;
51558;SDS011;61650;48.882;2.092;2022-12-01T16:30:49;22.98;;;14.45;;
51558;SDS011;61650;48.882;2.092;2022-12-01T16:33:20;21.63;;;13.63;;
51558;SDS011;61650;48.882;2.092;2022-12-01T16:35:48;22.42;;;15.40;;
51558;SDS011;61650;48.882;2.092;2022-12-01T16:38:16;22.08;;;12.82;;
51558;SDS011;61650;48.882;2.092;2022-12-01T16:40:50;22.98;;;13.82;;
51558;SDS011;61650;48.882;2.092;2022-12-01T16:43:18;25.77;;;14.50;;
51558;SDS011;61650;48.882;2.092;2022-12-01T16:45:46;23.20;;;14.05;;
51558;SDS011;61650;48.882;2.092;2022-12-01T16:48:19;24.08;;;15.45;;
51558;SDS011;61650;48.882;2.092;2022-12-01T16:50:46;25.52;;;15.70;;
51558;SDS011;61650;48.882;2.092;2022-12-01T16:53:12;23.90;;;15.70;;